createdAt,value
2018-01-02T00:01:19.571Z,1.40
2018-01-02T00:03:49.118Z,1.20
2018-01-02T00:06:18.695Z,1.10
2018-01-02T00:08:48.223Z,1.50
2018-01-02T00:11:17.714Z,1.67
2018-01-02T00:13:47.235Z,1.52
2018-01-02T00:16:16.732Z,1.60
2018-01-02T00:18:46.411Z,1.40
2018-01-02T00:21:15.904Z,2.95
2018-01-02T00:23:45.440Z,2.00
2018-01-02T00:26:14.963Z,2.28
2018-01-02T00:28:44.485Z,2.10
2018-01-02T00:31:13.991Z,2.37
2018-01-02T00:33:43.496Z,1.98
2018-01-02T00:36:12.990Z,1.30
2018-01-02T00:38:42.522Z,1.55
2018-01-02T00:41:12.034Z,1.20
2018-01-02T00:43:41.558Z,1.70
2018-01-02T00:46:11.088Z,1.00
2018-01-02T00:48:40.588Z,0.95
2018-01-02T00:51:10.093Z,0.90
2018-01-02T00:53:39.612Z,0.95
2018-01-02T00:56:09.104Z,1.20
2018-01-02T00:58:38.629Z,1.30
2018-01-02T01:01:08.114Z,3.00
2018-01-02T01:03:37.628Z,2.62
2018-01-02T01:06:07.144Z,0.80
2018-01-02T01:08:36.672Z,0.90
2018-01-02T01:11:06.873Z,0.80
2018-01-02T01:13:36.367Z,1.08
2018-01-02T01:16:05.879Z,1.00
2018-01-02T01:18:35.381Z,0.80
2018-01-02T01:21:04.918Z,1.77
2018-01-02T01:23:34.401Z,0.90
2018-01-02T01:26:03.930Z,0.90
2018-01-02T01:28:33.399Z,2.45
2018-01-02T01:31:02.944Z,2.35
2018-01-02T01:33:32.431Z,0.75
2018-01-02T01:36:01.948Z,1.35
2018-01-02T01:38:31.461Z,1.17
2018-01-02T01:41:00.972Z,1.58
2018-01-02T01:43:30.456Z,1.08
2018-01-02T01:45:59.969Z,1.15
2018-01-02T01:48:29.484Z,1.08
2018-01-02T01:50:58.965Z,1.37
2018-01-02T01:53:28.503Z,1.30
2018-01-02T01:55:58.028Z,1.70
2018-01-02T01:58:27.566Z,1.50
2018-01-02T02:00:57.100Z,2.00
2018-01-02T02:03:26.656Z,1.92
2018-01-02T02:05:56.137Z,1.20
2018-01-02T02:08:25.683Z,2.85
2018-01-02T02:10:55.496Z,1.65
2018-01-02T02:13:25.009Z,1.95
2018-01-02T02:15:54.552Z,1.85
2018-01-02T02:18:24.039Z,2.40
2018-01-02T02:20:53.709Z,1.40
2018-01-02T02:23:23.207Z,2.17
2018-01-02T02:25:52.712Z,3.25
2018-01-02T02:28:22.228Z,1.62
2018-01-02T02:30:51.726Z,1.98
2018-01-02T02:33:21.235Z,1.98
2018-01-02T02:35:50.738Z,1.50
2018-01-02T02:38:20.264Z,1.45
2018-01-02T02:40:55.553Z,1.50
2018-01-02T02:43:25.044Z,1.40
2018-01-02T02:45:54.578Z,1.73
2018-01-02T02:48:24.084Z,1.40
2018-01-02T02:50:53.587Z,1.55
2018-01-02T02:53:23.052Z,1.20
2018-01-02T02:55:52.555Z,2.95
2018-01-02T02:58:22.045Z,1.85
2018-01-02T03:00:51.564Z,1.40
2018-01-02T03:03:21.051Z,2.30
2018-01-02T03:05:50.586Z,1.95
2018-01-02T03:08:20.041Z,2.33
2018-01-02T03:10:49.558Z,1.98
2018-01-02T03:13:19.046Z,2.37
2018-01-02T03:15:48.583Z,1.95
2018-01-02T03:18:18.059Z,2.75
2018-01-02T03:20:47.594Z,3.05
2018-01-02T03:23:17.114Z,4.03
2018-01-02T03:25:46.584Z,3.70
2018-01-02T03:28:16.104Z,4.03
2018-01-02T03:30:45.592Z,3.50
2018-01-02T03:33:15.123Z,4.00
2018-01-02T03:35:44.585Z,4.15
2018-01-02T03:38:14.105Z,5.30
2018-01-02T03:40:43.614Z,4.62
2018-01-02T03:43:13.153Z,3.72
2018-01-02T03:45:42.625Z,4.12
2018-01-02T03:50:39.129Z,10.70
2018-01-02T03:53:08.663Z,3.25
2018-01-02T03:55:38.139Z,4.00
2018-01-02T03:58:07.663Z,3.80
2018-01-02T04:00:37.129Z,4.93
2018-01-02T04:03:06.668Z,8.40
2018-01-02T04:05:36.130Z,4.15
2018-01-02T04:08:05.681Z,7.40
2018-01-02T04:10:35.275Z,6.53
2018-01-02T04:13:04.754Z,7.20
2018-01-02T04:15:34.246Z,5.22
2018-01-02T04:18:03.767Z,4.57
2018-01-02T04:20:33.313Z,8.27
2018-01-02T04:23:02.792Z,6.82
2018-01-02T04:25:32.318Z,5.55
2018-01-02T04:28:01.814Z,4.15
2018-01-02T04:30:31.348Z,6.65
2018-01-02T04:33:00.875Z,3.37
2018-01-02T04:35:30.416Z,4.10
2018-01-02T04:37:59.889Z,3.87
2018-01-02T04:40:29.541Z,5.55
2018-01-02T04:42:59.048Z,3.85
2018-01-02T04:45:28.550Z,3.10
2018-01-02T04:47:58.044Z,2.97
2018-01-02T04:50:27.567Z,3.70
2018-01-02T04:52:57.054Z,4.18
2018-01-02T04:55:26.571Z,3.53
2018-01-02T04:57:56.151Z,5.35
2018-01-02T05:00:25.601Z,4.60
2018-01-02T05:02:55.137Z,4.15
2018-01-02T05:05:24.632Z,4.18
2018-01-02T05:07:54.129Z,5.28
2018-01-02T05:10:23.953Z,6.25
2018-01-02T05:12:53.492Z,4.65
2018-01-02T05:15:23.007Z,3.65
2018-01-02T05:17:52.519Z,4.47
2018-01-02T05:20:22.061Z,4.62
2018-01-02T05:22:51.542Z,5.95
2018-01-02T05:25:21.130Z,5.70
2018-01-02T05:27:50.625Z,7.43
2018-01-02T05:30:20.127Z,6.18
2018-01-02T05:32:49.664Z,6.62
2018-01-02T05:35:19.193Z,7.55
2018-01-02T05:37:48.698Z,7.40
2018-01-02T05:40:18.227Z,5.90
2018-01-02T05:42:47.706Z,6.18
2018-01-02T05:45:17.265Z,7.87
2018-01-02T05:47:46.924Z,4.65
2018-01-02T05:50:16.456Z,5.80
2018-01-02T05:52:45.971Z,6.37
2018-01-02T05:55:15.481Z,5.90
2018-01-02T05:57:44.997Z,4.70
2018-01-02T06:00:14.509Z,6.57
2018-01-02T06:02:43.996Z,9.02
2018-01-02T06:05:13.508Z,9.45
2018-01-02T06:07:43.043Z,4.78
2018-01-02T06:10:12.581Z,6.93
2018-01-02T06:12:42.055Z,5.12
2018-01-02T06:15:11.559Z,7.53
2018-01-02T06:17:41.115Z,7.05
2018-01-02T06:20:10.632Z,6.57
2018-01-02T06:22:40.123Z,4.75
2018-01-02T06:25:09.657Z,6.75
2018-01-02T06:27:39.159Z,6.03
2018-01-02T06:30:08.691Z,8.25
2018-01-02T06:32:38.291Z,7.90
2018-01-02T06:35:07.973Z,6.20
2018-01-02T06:37:37.480Z,5.20
2018-01-02T06:40:07.045Z,3.33
2018-01-02T06:42:36.542Z,7.55
2018-01-02T06:45:06.151Z,8.82
2018-01-02T06:47:35.641Z,6.95
2018-01-02T06:50:05.362Z,7.10
2018-01-02T06:52:35.001Z,5.82
2018-01-02T06:55:04.504Z,6.62
2018-01-02T06:57:34.036Z,8.18
2018-01-02T07:00:03.521Z,8.02
2018-01-02T07:02:33.188Z,4.25
2018-01-02T07:05:02.922Z,6.25
2018-01-02T07:07:32.441Z,8.25
2018-01-02T07:10:01.919Z,6.62
2018-01-02T07:12:31.536Z,11.80
2018-01-02T07:15:01.020Z,11.30
2018-01-02T07:17:30.510Z,9.27
2018-01-02T07:20:00.678Z,10.43
2018-01-02T07:22:30.512Z,9.45
2018-01-02T07:25:00.052Z,9.40
2018-01-02T07:27:29.583Z,13.93
2018-01-02T07:29:59.104Z,14.35
2018-01-02T07:32:28.623Z,8.25
2018-01-02T07:34:58.156Z,12.15
2018-01-02T07:37:27.746Z,15.95
2018-01-02T07:39:57.275Z,16.92
2018-01-02T07:42:26.787Z,7.90
2018-01-02T07:44:56.305Z,9.13
2018-01-02T07:47:25.801Z,7.82
2018-01-02T07:49:55.971Z,8.40
2018-01-02T07:52:25.484Z,6.07
2018-01-02T07:54:55.022Z,9.00
2018-01-02T07:57:24.533Z,7.28
2018-01-02T07:59:54.038Z,11.65
2018-01-02T08:02:23.576Z,8.25
2018-01-02T08:04:53.105Z,12.45
2018-01-02T08:07:22.820Z,7.60
2018-01-02T08:09:52.326Z,10.07
2018-01-02T08:12:21.840Z,11.68
2018-01-02T08:14:51.353Z,11.30
2018-01-02T08:17:20.835Z,7.10
2018-01-02T08:19:50.339Z,6.85
2018-01-02T08:22:19.845Z,10.82
2018-01-02T08:24:49.361Z,8.13
2018-01-02T08:27:18.866Z,7.50
2018-01-02T08:29:48.446Z,6.47
2018-01-02T08:32:17.969Z,7.90
2018-01-02T08:34:47.502Z,10.98
2018-01-02T08:37:17.337Z,6.25
2018-01-02T08:39:46.877Z,8.73
2018-01-02T08:42:16.342Z,8.65
2018-01-02T08:44:45.873Z,10.25
2018-01-02T08:47:15.356Z,7.55
2018-01-02T08:49:44.888Z,11.57
2018-01-02T08:52:14.368Z,7.70
2018-01-02T08:54:43.910Z,10.25
2018-01-02T08:57:13.409Z,10.95
2018-01-02T08:59:42.957Z,11.75
2018-01-02T09:02:12.472Z,10.77
2018-01-02T09:04:41.976Z,8.70
2018-01-02T09:07:11.466Z,11.35
2018-01-02T09:09:40.970Z,11.27
2018-01-02T09:12:16.252Z,11.77
2018-01-02T09:14:49.609Z,12.07
2018-01-02T09:17:19.110Z,8.95
2018-01-02T09:19:48.587Z,7.68
2018-01-02T09:22:18.095Z,10.70
2018-01-02T09:24:47.747Z,9.20
2018-01-02T09:27:17.444Z,11.45
2018-01-02T09:29:46.924Z,9.90
2018-01-02T09:32:16.445Z,6.97
2018-01-02T09:34:45.979Z,13.13
2018-01-02T09:37:15.502Z,16.12
2018-01-02T09:39:45.037Z,8.80
2018-01-02T09:42:14.521Z,9.05
2018-01-02T09:44:44.051Z,13.62
2018-01-02T09:47:13.541Z,11.07
2018-01-02T09:49:43.051Z,7.28
2018-01-02T09:52:12.614Z,10.55
2018-01-02T09:54:42.134Z,11.27
2018-01-02T09:57:11.657Z,9.73
2018-01-02T09:59:41.321Z,11.23
2018-01-02T10:02:10.809Z,9.65
2018-01-02T10:04:40.320Z,12.02
2018-01-02T10:07:10.049Z,7.95
2018-01-02T10:09:39.560Z,12.88
2018-01-02T10:12:09.069Z,8.10
2018-01-02T10:14:38.593Z,9.52
2018-01-02T10:17:08.350Z,9.40
2018-01-02T10:19:37.868Z,11.15
2018-01-02T10:22:07.360Z,11.30
2018-01-02T10:24:36.900Z,15.02
2018-01-02T10:27:06.400Z,9.63
2018-01-02T10:29:35.933Z,9.27
2018-01-02T10:32:05.393Z,8.57
2018-01-02T10:34:34.927Z,9.82
2018-01-02T10:37:04.441Z,8.45
2018-01-02T10:39:33.947Z,9.85
2018-01-02T10:42:03.550Z,7.75
2018-01-02T10:44:33.015Z,7.22
2018-01-02T10:47:02.560Z,11.25
2018-01-02T10:49:32.142Z,8.75
2018-01-02T10:52:01.675Z,9.30
2018-01-02T10:54:31.164Z,10.80
2018-01-02T10:57:00.728Z,10.80
2018-01-02T10:59:30.220Z,9.80
2018-01-02T11:01:59.759Z,13.13
2018-01-02T11:04:29.261Z,10.65
2018-01-02T11:06:58.728Z,11.07
2018-01-02T11:09:28.253Z,11.55
2018-01-02T11:11:59.081Z,10.77
2018-01-02T11:14:42.431Z,11.95
2018-01-02T11:17:11.905Z,11.85
2018-01-02T11:19:41.396Z,8.77
2018-01-02T11:22:10.946Z,9.45
2018-01-02T11:24:40.496Z,10.02
2018-01-02T11:27:09.973Z,11.90
2018-01-02T11:29:39.526Z,9.65
2018-01-02T11:32:09.064Z,11.00
2018-01-02T11:34:38.542Z,9.90
2018-01-02T11:37:08.058Z,8.60
2018-01-02T11:39:37.543Z,11.40
2018-01-02T11:42:07.096Z,10.75
2018-01-02T11:44:36.652Z,9.50
2018-01-02T11:47:06.173Z,9.38
2018-01-02T11:49:35.642Z,9.30
2018-01-02T11:52:05.178Z,9.65
2018-01-02T11:54:34.690Z,8.90
2018-01-02T11:57:04.237Z,7.45
2018-01-02T11:59:33.761Z,6.55
2018-01-02T12:02:03.307Z,12.07
2018-01-02T12:04:32.845Z,11.65
2018-01-02T12:07:02.696Z,11.50
2018-01-02T12:09:32.290Z,11.12
2018-01-02T12:12:01.806Z,13.15
2018-01-02T12:14:31.351Z,8.43
2018-01-02T12:17:00.864Z,9.65
2018-01-02T12:19:30.455Z,12.23
2018-01-02T12:21:59.932Z,12.98
2018-01-02T12:24:29.449Z,11.52
2018-01-02T12:26:58.948Z,17.15
2018-01-02T12:29:28.507Z,11.27
2018-01-02T12:31:58.041Z,9.00
2018-01-02T12:34:27.658Z,13.07
2018-01-02T12:36:57.118Z,10.48
2018-01-02T12:39:26.626Z,10.63
2018-01-02T12:41:56.149Z,7.90
2018-01-02T12:44:25.646Z,8.73
2018-01-02T12:46:55.141Z,10.35
2018-01-02T12:49:24.661Z,12.23
2018-01-02T12:51:54.246Z,10.85
2018-01-02T12:54:23.801Z,9.93
2018-01-02T12:56:53.277Z,8.63
2018-01-02T12:59:22.800Z,11.20
2018-01-02T13:01:52.286Z,8.60
2018-01-02T13:04:21.784Z,10.65
2018-01-02T13:06:51.331Z,10.70
2018-01-02T13:09:20.803Z,9.35
2018-01-02T13:11:50.364Z,12.27
2018-01-02T13:14:19.950Z,8.65
2018-01-02T13:16:49.559Z,7.40
2018-01-02T13:19:19.122Z,7.55
2018-01-02T13:21:49.380Z,6.15
2018-01-02T13:24:24.524Z,8.02
2018-01-02T13:26:54.145Z,6.85
2018-01-02T13:29:23.660Z,7.45
2018-01-02T13:31:53.170Z,7.47
2018-01-02T13:34:22.628Z,6.85
2018-01-02T13:36:52.159Z,5.40
2018-01-02T13:39:21.668Z,9.32
2018-01-02T13:41:51.211Z,9.82
2018-01-02T13:44:20.677Z,6.57
2018-01-02T13:46:50.247Z,7.03
2018-01-02T13:49:19.713Z,8.20
2018-01-02T13:51:49.236Z,6.85
2018-01-02T13:54:18.710Z,5.72
2018-01-02T13:56:48.330Z,7.82
2018-01-02T13:59:17.846Z,7.87
2018-01-02T14:01:47.824Z,7.15
2018-01-02T14:04:17.369Z,9.45
2018-01-02T14:06:46.815Z,5.85
2018-01-02T14:09:16.413Z,8.65
2018-01-02T14:11:45.901Z,6.55
2018-01-02T14:14:15.456Z,8.77
2018-01-02T14:16:44.968Z,5.57
2018-01-02T14:19:14.494Z,10.77
2018-01-02T14:21:43.972Z,4.40
2018-01-02T14:24:13.477Z,10.38
2018-01-02T14:26:42.979Z,6.90
2018-01-02T14:29:12.487Z,4.70
2018-01-02T14:31:42.004Z,8.70
2018-01-02T14:34:11.458Z,10.10
2018-01-02T14:36:40.969Z,6.35
2018-01-02T14:39:12.686Z,7.15
2018-01-02T14:41:42.388Z,8.80
2018-01-02T14:44:11.865Z,5.65
2018-01-02T14:46:41.492Z,6.80
2018-01-02T14:49:10.976Z,7.50
2018-01-02T14:51:40.476Z,6.40
2018-01-02T14:54:09.936Z,7.00
2018-01-02T14:56:39.450Z,11.98
2018-01-02T14:59:08.934Z,7.07
2018-01-02T15:01:38.414Z,8.07
2018-01-02T15:04:08.039Z,6.53
2018-01-02T15:06:37.578Z,11.95
2018-01-02T15:09:07.129Z,9.65
2018-01-02T15:11:36.618Z,8.57
2018-01-02T15:14:06.239Z,8.95
2018-01-02T15:16:35.835Z,8.20
2018-01-02T15:19:08.393Z,5.05
2018-01-02T15:21:37.878Z,11.68
2018-01-02T15:24:07.397Z,8.35
2018-01-02T15:26:36.864Z,7.80
2018-01-02T15:29:06.460Z,5.85
2018-01-02T15:31:35.937Z,10.55
2018-01-02T15:34:05.443Z,8.10
2018-01-02T15:36:34.974Z,6.80
2018-01-02T15:39:04.410Z,6.37
2018-01-02T15:41:33.910Z,8.20
2018-01-02T15:44:03.405Z,8.40
2018-01-02T15:46:32.963Z,13.05
2018-01-02T15:49:02.439Z,8.13
2018-01-02T15:51:31.952Z,10.25
2018-01-02T15:54:01.457Z,9.05
2018-01-02T15:56:30.937Z,10.85
2018-01-02T15:59:00.484Z,16.85
2018-01-02T16:01:30.125Z,9.10
2018-01-02T16:03:59.621Z,9.38
2018-01-02T16:06:29.098Z,11.85
2018-01-02T16:08:58.610Z,13.52
2018-01-02T16:11:28.123Z,11.38
2018-01-02T16:13:57.656Z,9.77
2018-01-02T16:16:27.121Z,8.52
2018-01-02T16:18:56.611Z,9.75
2018-01-02T16:21:26.116Z,11.25
2018-01-02T16:23:55.613Z,11.77
2018-01-02T16:26:25.098Z,7.87
2018-01-02T16:28:54.596Z,11.95
2018-01-02T16:31:24.113Z,8.95
2018-01-02T16:33:53.671Z,14.10
2018-01-02T16:36:23.178Z,15.07
2018-01-02T16:38:52.646Z,9.30
2018-01-02T16:41:22.188Z,11.30
2018-01-02T16:43:51.656Z,7.75
2018-01-02T16:46:21.185Z,12.65
2018-01-02T16:48:50.686Z,11.20
2018-01-02T16:51:20.182Z,10.57
2018-01-02T16:53:49.679Z,13.10
2018-01-02T16:56:19.171Z,9.60
2018-01-02T16:58:48.694Z,9.68
2018-01-02T17:01:18.431Z,13.15
2018-01-02T17:03:47.950Z,10.32
2018-01-02T17:06:17.462Z,9.02
2018-01-02T17:08:46.940Z,9.25
2018-01-02T17:11:16.473Z,8.05
2018-01-02T17:13:45.990Z,11.23
2018-01-02T17:16:15.464Z,9.52
2018-01-02T17:18:45.002Z,12.85
2018-01-02T17:21:14.490Z,8.70
2018-01-02T17:23:44.087Z,9.18
2018-01-02T17:26:13.573Z,11.05
2018-01-02T17:28:43.079Z,7.07
2018-01-02T17:31:12.564Z,7.12
2018-01-02T17:33:42.052Z,6.68
2018-01-02T17:36:11.567Z,9.20
2018-01-02T17:38:41.034Z,8.40
2018-01-02T17:41:10.556Z,8.55
2018-01-02T17:43:40.102Z,7.45
2018-01-02T17:46:09.679Z,7.35
2018-01-02T17:48:39.138Z,12.18
2018-01-02T17:51:08.662Z,8.48
2018-01-02T17:53:38.145Z,8.27
2018-01-02T17:56:07.651Z,9.13
2018-01-02T17:58:37.162Z,8.90
2018-01-02T18:01:06.803Z,12.07
2018-01-02T18:03:36.291Z,8.95
2018-01-02T18:06:05.802Z,17.95
2018-01-02T18:08:35.270Z,9.55
2018-01-02T18:11:04.783Z,9.00
2018-01-02T18:13:34.328Z,8.43
2018-01-02T18:16:03.809Z,8.90
2018-01-02T18:18:33.418Z,7.75
2018-01-02T18:21:02.877Z,8.88
2018-01-02T18:23:32.411Z,8.65
2018-01-02T18:26:01.950Z,10.30
2018-01-02T18:28:31.471Z,12.10
2018-01-02T18:31:00.974Z,7.07
2018-01-02T18:33:30.515Z,8.00
2018-01-02T18:36:00.014Z,10.95
2018-01-02T18:38:29.498Z,10.20
2018-01-02T18:40:59.020Z,8.40
2018-01-02T18:43:28.550Z,9.75
2018-01-02T18:45:58.082Z,6.95
2018-01-02T18:48:27.587Z,10.93
2018-01-02T18:50:57.096Z,8.55
2018-01-02T18:53:26.638Z,9.85
2018-01-02T18:55:56.293Z,7.95
2018-01-02T18:58:25.783Z,7.97
2018-01-02T19:00:55.415Z,7.30
2018-01-02T19:03:24.941Z,8.48
2018-01-02T19:05:54.474Z,9.95
2018-01-02T19:08:24.125Z,10.85
2018-01-02T19:10:53.631Z,8.38
2018-01-02T19:13:23.288Z,8.48
2018-01-02T19:15:52.866Z,13.02
2018-01-02T19:18:22.467Z,14.38
2018-01-02T19:20:52.301Z,13.85
2018-01-02T19:23:21.807Z,7.32
2018-01-02T19:25:51.364Z,10.73
2018-01-02T19:28:20.874Z,9.25
2018-01-02T19:30:50.380Z,8.25
2018-01-02T19:33:19.922Z,9.05
2018-01-02T19:35:49.437Z,6.90
2018-01-02T19:38:18.921Z,9.10
2018-01-02T19:40:48.539Z,6.80
2018-01-02T19:43:18.606Z,7.45
2018-01-02T19:45:48.173Z,9.20
2018-01-02T19:48:17.709Z,9.43
2018-01-02T19:50:47.284Z,10.32
2018-01-02T19:53:16.909Z,12.10
2018-01-02T19:55:46.519Z,8.05
2018-01-02T19:58:16.071Z,10.02
2018-01-02T20:00:45.681Z,11.85
2018-01-02T20:03:15.245Z,11.32
2018-01-02T20:05:44.773Z,9.55
2018-01-02T20:08:14.405Z,10.93
2018-01-02T20:10:43.932Z,9.05
2018-01-02T20:13:13.504Z,11.98
2018-01-02T20:15:43.042Z,10.38
2018-01-02T20:18:19.063Z,9.73
2018-01-02T20:20:48.593Z,11.35
2018-01-02T20:23:18.220Z,7.82
2018-01-02T20:25:47.748Z,8.48
2018-01-02T20:28:17.274Z,6.70
2018-01-02T20:30:46.842Z,9.73
2018-01-02T20:33:16.344Z,8.52
2018-01-02T20:35:45.969Z,9.65
2018-01-02T20:38:15.541Z,7.12
2018-01-02T20:40:45.055Z,6.45
2018-01-02T20:43:14.642Z,9.27
2018-01-02T20:45:44.207Z,10.25
2018-01-02T20:48:13.809Z,8.93
2018-01-02T20:50:43.428Z,8.95
2018-01-02T20:53:13.000Z,10.45
2018-01-02T20:55:43.265Z,8.32
2018-01-02T20:58:12.794Z,5.28
2018-01-02T21:00:42.524Z,9.82
2018-01-02T21:03:12.065Z,9.15
2018-01-02T21:05:41.623Z,7.20
2018-01-02T21:08:11.120Z,11.77
2018-01-02T21:10:40.647Z,5.82
2018-01-02T21:13:10.236Z,11.38
2018-01-02T21:15:39.772Z,9.07
2018-01-02T21:18:09.336Z,8.45
2018-01-02T21:20:38.846Z,7.28
2018-01-02T21:23:08.423Z,10.23
2018-01-02T21:25:37.933Z,9.82
2018-01-02T21:28:07.483Z,5.93
2018-01-02T21:30:37.014Z,8.05
2018-01-02T21:33:06.518Z,6.05
2018-01-02T21:35:36.048Z,9.13
2018-01-02T21:38:05.557Z,10.20
2018-01-02T21:40:35.079Z,7.57
2018-01-02T21:43:06.086Z,5.60
2018-01-02T21:45:35.613Z,8.95
2018-01-02T21:48:05.152Z,7.72
2018-01-02T21:50:34.632Z,6.25
2018-01-02T21:53:04.182Z,5.50
2018-01-02T21:55:33.649Z,10.75
2018-01-02T21:58:03.173Z,14.73
2018-01-02T22:00:32.699Z,8.55
2018-01-02T22:03:02.212Z,10.63
2018-01-02T22:05:31.713Z,9.73
2018-01-02T22:08:01.214Z,10.38
2018-01-02T22:10:30.710Z,9.70
2018-01-02T22:13:00.178Z,8.15
2018-01-02T22:15:29.696Z,10.70
2018-01-02T22:17:59.163Z,15.55
2018-01-02T22:20:28.719Z,8.77
2018-01-02T22:22:58.237Z,11.25
2018-01-02T22:25:27.759Z,8.15
2018-01-02T22:27:57.237Z,6.37
2018-01-02T22:30:26.764Z,7.22
2018-01-02T22:32:56.286Z,8.27
2018-01-02T22:35:25.832Z,7.82
2018-01-02T22:37:55.416Z,11.52
2018-01-02T22:40:24.924Z,7.12
2018-01-02T22:42:54.498Z,8.00
2018-01-02T22:45:24.093Z,6.22
2018-01-02T22:47:53.577Z,9.13
2018-01-02T22:50:23.040Z,10.98
2018-01-02T22:52:52.642Z,3.42
2018-01-02T22:55:22.252Z,6.32
2018-01-02T22:57:51.965Z,8.60
2018-01-02T23:00:21.455Z,4.87
2018-01-02T23:02:51.535Z,5.50
2018-01-02T23:05:21.207Z,5.72
2018-01-02T23:07:50.684Z,9.32
2018-01-02T23:10:20.187Z,7.20
2018-01-02T23:12:49.639Z,6.28
2018-01-02T23:15:19.323Z,4.57
2018-01-02T23:17:48.797Z,4.68
2018-01-02T23:20:18.349Z,11.45
2018-01-02T23:22:47.878Z,9.52
2018-01-02T23:25:17.516Z,6.78
2018-01-02T23:27:47.023Z,8.23
2018-01-02T23:30:16.523Z,6.68
2018-01-02T23:32:46.025Z,6.40
2018-01-02T23:35:15.515Z,4.43
2018-01-02T23:37:44.976Z,4.75
2018-01-02T23:40:14.471Z,3.67
2018-01-02T23:42:43.960Z,8.65
2018-01-02T23:45:13.444Z,7.90
2018-01-02T23:47:42.937Z,5.05
2018-01-02T23:50:12.407Z,3.55
2018-01-02T23:52:42.082Z,4.97
2018-01-02T23:55:12.065Z,2.72
2018-01-02T23:57:41.815Z,5.90
